Angie, Louisiana
Current Conditions -  °F | °C
As of 1:53 PM on Tuesday 21 Oct 2014 (Local Time) from KHBG Reporting Station
Clear Clear  
Wind Chill: 78°   Ceiling: Unl
Heat Index: 79°   Visibility: 10mi
Dew Point: 52°   Wind: 5mph
Humidity: 40%   Direction: NA
Pressure: 30.02"   Gusts: NA
Location:  30.96°N, 89.82°W
Report Text: KHBG 211853Z AUTO VRB04KT 10SM CLR 26/11 A3002 RMK AO2 SLP165 T02560111
Loading
Personal Weather Stations






























Interactive Weather Map
Tropical Storm Tracking
New forecast layout! Learn more

10-Day Weather Forecast

Advertisements
Track Severe Weather on mobile